Flight Track Log - Related Links

Times and Time Zones

All times are in EDT time to prevent confusion due to time zone crossing. See the ASQ4283 flight status page for this flight to view local times or setup timezone preferences in your user account.

Time Position Orientation Groundspeed Altitude Reporting Facility
EDT Latitude Longitude Course Direction KTS MPH feet Rate Location/Type
Sat 06:04:31 AM 42.7278 -73.8081 283° West 160 184 1,100  Level Boston Center
Sat 06:05:31 AM 42.6736 -73.8069 179° South 202 232 2,900 1,686 Climbing Boston Center
Sat 06:06:32 AM 42.6853 -73.8806 282° West 258 297 4,500 1,474 Climbing Boston Center
Sat 06:07:00 AM 42.8038 -74.1856 285° West  Level FlightAware Approximate
Sat 06:07:25 AM 42.7244 -73.9069 334° Northwest 274 315 5,700  Level Boston Center
Sat 06:08:00 AM 42.8298 -74.3156 285° West  Level FlightAware Approximate
Sat 06:08:25 AM 42.8114 -73.9486 341° North 280 322 8,100  Level Boston Center
Sat 06:09:00 AM 42.8523 -74.4468 283° West  Level FlightAware Approximate
Sat 06:09:49 AM 42.9003 -73.9961 339° North 280 322 10,100  Level Boston Center
Sat 06:10:49 AM 43.0142 -74.0558 339° North 319 367 11,100 1,150 Climbing Boston Center
Sat 06:11:49 AM 43.1072 -74.1067 338° Northwest 354 407 12,400 1,200 Climbing Boston Center
Sat 06:12:49 AM 43.1556 -74.2133 302° West 337 388 13,500 1,150 Climbing Boston Center
Sat 06:13:49 AM 43.1536 -74.3414 269° West 311 358 14,700 950 Climbing Boston Center
Sat 06:14:49 AM 43.1578 -74.4581 273° West 340 391 15,400 850 Climbing Boston Center
Sat 06:15:49 AM 43.1594 -74.5919 271° West 351 404 16,400 950 Climbing Boston Center
Sat 06:16:49 AM 43.1592 -74.7228 270° West 351 404 17,300 1,000 Climbing Boston Center
Sat 06:17:49 AM 43.1583 -74.8594 270° West 351 404 18,400 1,050 Climbing Boston Center
Sat 06:18:49 AM 43.1594 -74.9961 271° West 356 410 19,400 950 Climbing Boston Center
Sat 06:19:49 AM 43.1622 -75.1500 271° West 362 417 20,300 1,000 Climbing Boston Center
Sat 06:20:49 AM 43.1608 -75.2922 269° West 367 422 21,400 1,100 Climbing Boston Center
Sat 06:21:49 AM 43.1633 -75.4347 271° West 367 422 22,500 1,150 Climbing Boston Center
Sat 06:22:49 AM 43.1617 -75.5772 269° West 367 422 23,700 1,150 Climbing Boston Center
Sat 06:23:49 AM 43.1639 -75.7197 271° West 367 422 24,800 1,100 Climbing Boston Center
Sat 06:24:49 AM 43.1619 -75.8589 269° West 367 422 25,900 1,100 Climbing Boston Center
Sat 06:25:49 AM 43.1619 -75.9986 270° West 367 422 27,000 1,063 Climbing Boston Center
Sat 06:27:44 AM 43.1586 -76.2539 269° West 365 420 29,000 1,063 Climbing Cleveland Center
Sat 06:28:44 AM 43.1597 -76.3906 271° West 365 420 30,100 1,100 Climbing Cleveland Center
Sat 06:29:44 AM 43.1603 -76.5242 270° West 365 420 31,200 1,150 Climbing Cleveland Center
Sat 06:30:44 AM 43.1608 -76.6608 270° West 365 420 32,400 1,250 Climbing Cleveland Center
Sat 06:31:44 AM 43.1594 -76.8061 269° West 360 414 33,700 800 Climbing Cleveland Center
Sat 06:32:44 AM 43.1597 -76.9456 270° West 354 407 34,000 150 Climbing Cleveland Center
Sat 06:33:44 AM 43.1578 -77.0881 269° West 367 422 34,000  Level Cleveland Center
Sat 06:34:44 AM 43.1558 -77.2392 269° West 387 445 34,000  Level Cleveland Center
Sat 06:35:44 AM 43.1564 -77.4014 270° West 408 470 34,000  Level Cleveland Center
Sat 06:36:44 AM 43.1525 -77.5694 268° West 426 490 34,000  Level Cleveland Center
Sat 06:37:44 AM 43.1525 -77.7375 270° West 444 511 34,000 500 Level Cleveland Center
Sat 06:38:44 AM 43.1503 -77.9083 269° West 449 517 35,000 1,000 Climbing Cleveland Center
Sat 06:39:44 AM 43.1478 -78.0706 269° West 442 509 36,000 500 Climbing Cleveland Center
Sat 06:40:44 AM 43.1450 -78.2331 269° West 437 503 36,000  Level Cleveland Center
Sat 06:41:44 AM 43.1419 -78.4036 269° West 443 510 36,000  Level Cleveland Center
Sat 06:42:44 AM 43.1383 -78.5375 268° West 443 510 36,000  Level Cleveland Center
Sat 06:43:44 AM 43.1311 -78.7397 267° West 443 510 36,000  Level Cleveland Center
Sat 06:44:44 AM 43.1275 -78.9106 268° West 448 516 36,000  Level Cleveland Center
Sat 06:47:12 AM 43.1000 -79.3167 265° West 450 518 36,000  Level Toronto Center
Sat 06:48:12 AM 43.1000 -79.5000 270° West 450 518 36,000  Level Toronto Center
Sat 06:49:12 AM 43.0833 -79.6500 261° West 450 518 36,000  Level Toronto Center
Sat 06:50:12 AM 43.0833 -79.8167 270° West 450 518 36,000  Level Toronto Center
Sat 06:51:12 AM 43.0833 -80.0000 270° West 450 518 36,000  Level Toronto Center
Sat 06:52:12 AM 43.0667 -80.1500 261° West 450 518 36,000  Level Toronto Center
Sat 06:53:12 AM 43.0667 -80.3167 270° West 440 506 36,000  Level Toronto Center
Sat 06:54:12 AM 43.0667 -80.5000 270° West 440 506 36,000  Level Toronto Center
Sat 06:55:12 AM 43.0500 -80.6667 262° West 440 506 36,000  Level Toronto Center
Sat 06:56:12 AM 43.0333 -80.8500 263° West 440 506 36,000  Level Toronto Center
Sat 06:57:12 AM 43.0333 -81.0000 270° West 430 495 36,000  Level Toronto Center
Sat 06:58:12 AM 43.0167 -81.1667 262° West 430 495 36,000  Level Toronto Center
Sat 06:59:12 AM 43.0167 -81.3167 270° West 430 495 36,000  Level Toronto Center
Sat 07:00:12 AM 43.0167 -81.4833 270° West 430 495 36,000  Level Toronto Center
Sat 07:01:12 AM 43.0167 -81.6667 270° West 430 495 36,000  Level Toronto Center
Sat 07:02:12 AM 43.0167 -81.8167 270° West 430 495 36,000  Level Toronto Center
Sat 07:03:12 AM 43.0000 -81.9833 262° West 430 495 36,000  Level Toronto Center
Sat 07:04:12 AM 43.0000 -82.1333 270° West 440 506 36,000  Level Toronto Center
Sat 07:05:12 AM 43.0000 -82.3000 270° West 440 506 36,000  Level Toronto Center
Sat 07:06:12 AM 43.0000 -82.4833 270° West 440 506 36,000  Level Toronto Center
Sat 07:07:20 AM 43.0017 -82.6783 271° West 438 504 36,000  Level Cleveland Center
Sat 07:08:20 AM 42.9967 -82.8456 268° West 438 504 36,000  Level Cleveland Center
Sat 07:09:20 AM 42.9911 -83.0100 267° West 438 504 36,000  Level Cleveland Center
Sat 07:10:20 AM 42.9853 -83.1800 267° West 438 504 36,000 -50 Level Cleveland Center
Sat 07:11:20 AM 42.9814 -83.3475 268° West 445 512 35,900 -400 Descending Cleveland Center
Sat 07:12:20 AM 42.9753 -83.5175 267° West 450 518 35,200 -900 Descending Cleveland Center
Sat 07:13:20 AM 42.9667 -83.6844 266° West 450 518 34,100 -1,200 Descending Cleveland Center
Sat 07:14:20 AM 42.9539 -83.8483 264° West 450 518 32,800 -1,050 Descending Cleveland Center
Sat 07:15:20 AM 42.9386 -84.0150 263° West 445 512 32,000 -400 Descending Cleveland Center
Sat 07:16:20 AM 42.9250 -84.1844 264° West 445 512 32,000  Level Cleveland Center
Sat 07:16:51 AM 42.9175 -84.2556 262° West 450 518 32,000  Level Chicago Center
Sat 07:17:52 AM 42.9006 -84.4247 262° West 451 519 32,000  Level Chicago Center
Sat 07:18:53 AM 42.8831 -84.5914 262° West 447 514 32,000  Level Chicago Center
Sat 07:19:53 AM 42.8653 -84.7594 262° West 448 516 32,000  Level Chicago Center
Sat 07:20:54 AM 42.8489 -84.9250 262° West 443 510 32,000  Level Chicago Center
Sat 07:21:55 AM 42.8306 -85.0900 261° West 442 509 32,000  Level Chicago Center
Sat 07:22:56 AM 42.8133 -85.2544 262° West 439 505 32,000 -492 Level Chicago Center
Sat 07:23:57 AM 42.7950 -85.4175 261° West 436 502 31,000 -1,426 Descending Chicago Center
Sat 07:24:58 AM 42.7725 -85.5778 259° West 431 496 29,100 -2,016 Descending Chicago Center
Sat 07:25:59 AM 42.7428 -85.7397 256° West 436 502 26,900 -2,164 Descending Chicago Center
Sat 07:27:00 AM 42.7125 -85.9075 256° West 450 518 24,700 -2,262 Descending Chicago Center
Sat 07:28:01 AM 42.6825 -86.0708 256° West 445 512 22,300 -2,311 Descending Chicago Center
Sat 07:29:02 AM 42.6497 -86.2533 256° West 417 480 20,000 -1,131 Descending Chicago Center
Sat 07:30:03 AM 42.6194 -86.4044 255° West 413 475 20,000 -836 Level Chicago Center
Sat 07:31:04 AM 42.5914 -86.5578 256° West 418 481 18,300 -2,164 Descending Chicago Center
Sat 07:32:05 AM 42.5642 -86.7058 256° West 408 470 15,600 -2,410 Descending Chicago Center
Sat 07:33:06 AM 42.5297 -86.8450 251° West 392 451 13,400 -2,164 Descending Chicago Center
Sat 07:34:07 AM 42.4931 -86.9744 249° West 372 428 11,200 -1,672 Descending Chicago Center
Sat 07:35:08 AM 42.4572 -87.1017 249° West 364 419 10,000 -738 Descending Chicago Center
Sat 07:36:09 AM 42.4250 -87.2194 250° West 333 383 9,700 -934 Descending Chicago Center
Sat 07:37:10 AM 42.3989 -87.3178 250° West 285 328 8,100 -1,707 Descending Chicago Center
Sat 07:38:12 AM 42.3383 -87.3714 213° Southwest 290 334 6,200 -1,073 Descending Chicago Center
Sat 07:39:13 AM 42.2617 -87.4017 196° South 276 318 5,900 -590 Descending Chicago Center
Sat 07:40:14 AM 42.1886 -87.4286 195° South 275 316 5,000 -934 Descending Chicago Center
Sat 07:41:15 AM 42.1136 -87.4303 181° South 272 313 4,000 -492 Descending Chicago Center
Sat 07:42:16 AM 42.0222 -87.4233 177° South 274 315 4,000 -49 Level Chicago Center
Sat 07:43:17 AM 41.9831 -87.4900 232° Southwest 247 284 3,900 -49 Descending Chicago Center
Sat 07:44:18 AM 41.9833 -87.5758 270° West 234 269 3,900  Level Chicago Center
Sat 07:45:19 AM 41.9839 -87.6600 271° West 230 265 3,900  Level Chicago Center

Login

Don't have an account? Register now (free) for customized features, flight alerts, and more!